sensor_id;sensor_type;location;lat;lon;timestamp;temperature;humidity
46490;DHT22;32204;49.160;8.580;2024-03-22T00:00:42;10.90;99.90
46490;DHT22;32204;49.160;8.580;2024-03-22T00:03:08;10.80;99.90
46490;DHT22;32204;49.160;8.580;2024-03-22T00:05:33;10.80;1.00
46490;DHT22;32204;49.160;8.580;2024-03-22T00:07:59;10.80;1.00
46490;DHT22;32204;49.160;8.580;2024-03-22T00:10:24;10.80;99.90
46490;DHT22;32204;49.160;8.580;2024-03-22T00:12:50;10.70;99.90
46490;DHT22;32204;49.160;8.580;2024-03-22T00:15:16;10.60;1.00
46490;DHT22;32204;49.160;8.580;2024-03-22T00:17:44;10.50;1.00
46490;DHT22;32204;49.160;8.580;2024-03-22T00:20:10;10.50;99.90
46490;DHT22;32204;49.160;8.580;2024-03-22T00:22:35;10.60;99.90
46490;DHT22;32204;49.160;8.580;2024-03-22T00:25:01;10.70;90.30
46490;DHT22;32204;49.160;8.580;2024-03-22T00:27:26;10.80;1.00
46490;DHT22;32204;49.160;8.580;2024-03-22T00:29:52;10.80;1.00
46490;DHT22;32204;49.160;8.580;2024-03-22T00:32:18;10.60;99.90
46490;DHT22;32204;49.160;8.580;2024-03-22T00:34:43;10.50;1.00
46490;DHT22;32204;49.160;8.580;2024-03-22T00:37:09;10.50;61.50
46490;DHT22;32204;49.160;8.580;2024-03-22T00:39:34;10.60;99.90
46490;DHT22;32204;49.160;8.580;2024-03-22T00:42:01;10.70;99.90
46490;DHT22;32204;49.160;8.580;2024-03-22T00:44:26;10.70;99.90
46490;DHT22;32204;49.160;8.580;2024-03-22T00:46:52;10.60;1.00
46490;DHT22;32204;49.160;8.580;2024-03-22T00:49:18;10.40;1.00
46490;DHT22;32204;49.160;8.580;2024-03-22T00:51:43;10.20;99.90
46490;DHT22;32204;49.160;8.580;2024-03-22T00:54:10;10.10;99.90
46490;DHT22;32204;49.160;8.580;2024-03-22T00:56:35;10.20;99.90
46490;DHT22;32204;49.160;8.580;2024-03-22T00:59:01;10.10;99.90
46490;DHT22;32204;49.160;8.580;2024-03-22T01:01:27;10.30;99.90
46490;DHT22;32204;49.160;8.580;2024-03-22T01:03:53;10.30;99.90
46490;DHT22;32204;49.160;8.580;2024-03-22T01:06:18;10.40;92.30
46490;DHT22;32204;49.160;8.580;2024-03-22T01:08:49;10.40;99.90
46490;DHT22;32204;49.160;8.580;2024-03-22T01:11:15;10.40;99.90
46490;DHT22;32204;49.160;8.580;2024-03-22T01:13:40;10.30;1.00
46490;DHT22;32204;49.160;8.580;2024-03-22T01:16:06;10.30;1.00
46490;DHT22;32204;49.160;8.580;2024-03-22T01:18:35;10.30;1.00
46490;DHT22;32204;49.160;8.580;2024-03-22T01:21:01;10.20;1.00
46490;DHT22;32204;49.160;8.580;2024-03-22T01:23:26;10.10;80.70
46490;DHT22;32204;49.160;8.580;2024-03-22T01:25:52;10.10;30.00
46490;DHT22;32204;49.160;8.580;2024-03-22T01:28:17;10.00;99.90
46490;DHT22;32204;49.160;8.580;2024-03-22T01:30:43;9.90;99.90
46490;DHT22;32204;49.160;8.580;2024-03-22T01:33:09;9.90;99.90
46490;DHT22;32204;49.160;8.580;2024-03-22T01:35:35;9.80;99.90
46490;DHT22;32204;49.160;8.580;2024-03-22T01:38:00;9.80;99.90
46490;DHT22;32204;49.160;8.580;2024-03-22T01:40:26;9.90;99.60
46490;DHT22;32204;49.160;8.580;2024-03-22T01:42:58;9.80;40.60
46490;DHT22;32204;49.160;8.580;2024-03-22T01:45:25;9.80;99.90
46490;DHT22;32204;49.160;8.580;2024-03-22T01:47:54;9.90;99.90
46490;DHT22;32204;49.160;8.580;2024-03-22T01:50:21;10.00;99.90
46490;DHT22;32204;49.160;8.580;2024-03-22T01:52:47;9.90;97.20
46490;DHT22;32204;49.160;8.580;2024-03-22T01:55:13;9.70;99.90
46490;DHT22;32204;49.160;8.580;2024-03-22T01:57:39;9.60;1.00
46490;DHT22;32204;49.160;8.580;2024-03-22T02:00:06;9.60;1.00
46490;DHT22;32204;49.160;8.580;2024-03-22T02:02:34;9.70;49.80
46490;DHT22;32204;49.160;8.580;2024-03-22T02:04:59;9.80;31.90
46490;DHT22;32204;49.160;8.580;2024-03-22T02:07:29;9.90;1.00
46490;DHT22;32204;49.160;8.580;2024-03-22T02:09:55;9.90;99.90
46490;DHT22;32204;49.160;8.580;2024-03-22T02:12:20;9.90;1.00
46490;DHT22;32204;49.160;8.580;2024-03-22T02:14:46;9.90;1.00
46490;DHT22;32204;49.160;8.580;2024-03-22T02:17:11;10.00;99.90
46490;DHT22;32204;49.160;8.580;2024-03-22T02:19:37;10.10;99.90
46490;DHT22;32204;49.160;8.580;2024-03-22T02:22:03;10.20;92.00
46490;DHT22;32204;49.160;8.580;2024-03-22T02:24:28;10.00;99.90
46490;DHT22;32204;49.160;8.580;2024-03-22T02:26:54;9.90;1.00
46490;DHT22;32204;49.160;8.580;2024-03-22T02:29:19;9.90;99.90
46490;DHT22;32204;49.160;8.580;2024-03-22T02:31:45;9.90;99.90
46490;DHT22;32204;49.160;8.580;2024-03-22T02:34:10;9.90;99.90
46490;DHT22;32204;49.160;8.580;2024-03-22T02:36:36;9.80;99.90
46490;DHT22;32204;49.160;8.580;2024-03-22T02:39:02;9.70;99.90
46490;DHT22;32204;49.160;8.580;2024-03-22T02:41:27;9.70;1.00
46490;DHT22;32204;49.160;8.580;2024-03-22T02:43:53;9.80;99.90
46490;DHT22;32204;49.160;8.580;2024-03-22T02:46:18;9.80;1.00
46490;DHT22;32204;49.160;8.580;2024-03-22T02:48:44;9.90;1.00
46490;DHT22;32204;49.160;8.580;2024-03-22T02:51:10;10.00;1.00
46490;DHT22;32204;49.160;8.580;2024-03-22T02:53:35;9.90;99.90
46490;DHT22;32204;49.160;8.580;2024-03-22T02:56:01;9.70;1.00
46490;DHT22;32204;49.160;8.580;2024-03-22T02:58:26;9.70;58.70
46490;DHT22;32204;49.160;8.580;2024-03-22T03:00:52;9.70;4.70
46490;DHT22;32204;49.160;8.580;2024-03-22T03:03:17;9.60;99.90
46490;DHT22;32204;49.160;8.580;2024-03-22T03:05:43;9.60;99.90
46490;DHT22;32204;49.160;8.580;2024-03-22T03:08:09;9.70;99.90
46490;DHT22;32204;49.160;8.580;2024-03-22T03:10:35;9.90;11.20
46490;DHT22;32204;49.160;8.580;2024-03-22T03:13:01;9.90;1.00
46490;DHT22;32204;49.160;8.580;2024-03-22T03:15:26;10.00;99.90
46490;DHT22;32204;49.160;8.580;2024-03-22T03:17:52;10.00;99.90
46490;DHT22;32204;49.160;8.580;2024-03-22T03:20:18;10.00;99.90
46490;DHT22;32204;49.160;8.580;2024-03-22T03:22:43;10.10;99.90
46490;DHT22;32204;49.160;8.580;2024-03-22T03:25:09;10.00;99.90
46490;DHT22;32204;49.160;8.580;2024-03-22T03:27:34;10.00;99.90
46490;DHT22;32204;49.160;8.580;2024-03-22T03:30:00;9.80;99.90
46490;DHT22;32204;49.160;8.580;2024-03-22T03:32:27;9.80;99.90
46490;DHT22;32204;49.160;8.580;2024-03-22T03:34:52;9.80;99.90
46490;DHT22;32204;49.160;8.580;2024-03-22T03:37:18;9.80;99.90
46490;DHT22;32204;49.160;8.580;2024-03-22T03:39:43;9.80;99.90
46490;DHT22;32204;49.160;8.580;2024-03-22T03:42:09;9.80;92.20
46490;DHT22;32204;49.160;8.580;2024-03-22T03:44:35;9.80;1.00
46490;DHT22;32204;49.160;8.580;2024-03-22T03:47:01;9.80;99.90
46490;DHT22;32204;49.160;8.580;2024-03-22T03:49:27;9.80;99.90
46490;DHT22;32204;49.160;8.580;2024-03-22T03:51:53;9.80;41.00
46490;DHT22;32204;49.160;8.580;2024-03-22T03:54:18;9.80;99.90
46490;DHT22;32204;49.160;8.580;2024-03-22T03:56:44;9.70;89.20
46490;DHT22;32204;49.160;8.580;2024-03-22T03:59:09;9.60;99.90
46490;DHT22;32204;49.160;8.580;2024-03-22T04:01:35;9.50;99.90
46490;DHT22;32204;49.160;8.580;2024-03-22T04:04:03;9.50;1.00
46490;DHT22;32204;49.160;8.580;2024-03-22T04:06:29;9.40;1.00
46490;DHT22;32204;49.160;8.580;2024-03-22T04:08:54;9.40;1.00
46490;DHT22;32204;49.160;8.580;2024-03-22T04:11:20;9.30;1.00
46490;DHT22;32204;49.160;8.580;2024-03-22T04:13:45;9.20;1.00
46490;DHT22;32204;49.160;8.580;2024-03-22T04:16:13;9.10;1.00
46490;DHT22;32204;49.160;8.580;2024-03-22T04:18:38;9.10;99.90
46490;DHT22;32204;49.160;8.580;2024-03-22T04:21:04;9.10;99.90
46490;DHT22;32204;49.160;8.580;2024-03-22T04:23:30;9.10;99.90
46490;DHT22;32204;49.160;8.580;2024-03-22T04:25:57;9.20;99.90
46490;DHT22;32204;49.160;8.580;2024-03-22T04:28:24;9.20;1.00
46490;DHT22;32204;49.160;8.580;2024-03-22T04:33:25;9.10;1.00
46490;DHT22;32204;49.160;8.580;2024-03-22T04:35:51;9.00;1.00
46490;DHT22;32204;49.160;8.580;2024-03-22T04:38:17;8.90;99.90
46490;DHT22;32204;49.160;8.580;2024-03-22T04:40:43;8.90;99.90
46490;DHT22;32204;49.160;8.580;2024-03-22T04:43:08;8.90;64.30
46490;DHT22;32204;49.160;8.580;2024-03-22T04:45:34;8.90;1.00
46490;DHT22;32204;49.160;8.580;2024-03-22T04:48:04;8.90;99.90
46490;DHT22;32204;49.160;8.580;2024-03-22T04:50:30;9.00;1.00
46490;DHT22;32204;49.160;8.580;2024-03-22T04:52:56;9.00;1.00
46490;DHT22;32204;49.160;8.580;2024-03-22T04:55:21;9.10;54.60
46490;DHT22;32204;49.160;8.580;2024-03-22T04:57:47;9.20;1.00
46490;DHT22;32204;49.160;8.580;2024-03-22T05:00:13;9.20;99.90
46490;DHT22;32204;49.160;8.580;2024-03-22T05:02:38;9.10;1.00
46490;DHT22;32204;49.160;8.580;2024-03-22T05:05:05;8.90;99.90
46490;DHT22;32204;49.160;8.580;2024-03-22T05:07:31;8.90;1.00
46490;DHT22;32204;49.160;8.580;2024-03-22T05:09:57;9.00;1.00
46490;DHT22;32204;49.160;8.580;2024-03-22T05:12:22;9.00;1.00
46490;DHT22;32204;49.160;8.580;2024-03-22T05:14:48;9.00;1.00
46490;DHT22;32204;49.160;8.580;2024-03-22T05:17:13;9.00;17.50
46490;DHT22;32204;49.160;8.580;2024-03-22T05:19:39;9.00;1.00
46490;DHT22;32204;49.160;8.580;2024-03-22T05:22:05;9.10;99.90
46490;DHT22;32204;49.160;8.580;2024-03-22T05:24:31;9.10;17.50
46490;DHT22;32204;49.160;8.580;2024-03-22T05:26:58;9.20;99.90
46490;DHT22;32204;49.160;8.580;2024-03-22T05:29:25;9.20;99.90
46490;DHT22;32204;49.160;8.580;2024-03-22T05:31:51;9.20;99.90
46490;DHT22;32204;49.160;8.580;2024-03-22T05:34:18;9.10;99.90
46490;DHT22;32204;49.160;8.580;2024-03-22T05:36:44;9.20;99.90
46490;DHT22;32204;49.160;8.580;2024-03-22T05:39:10;9.30;99.90
46490;DHT22;32204;49.160;8.580;2024-03-22T05:41:36;9.30;99.90
46490;DHT22;32204;49.160;8.580;2024-03-22T05:44:02;9.20;99.90
46490;DHT22;32204;49.160;8.580;2024-03-22T05:46:29;9.20;99.90
46490;DHT22;32204;49.160;8.580;2024-03-22T05:48:54;9.20;99.90
46490;DHT22;32204;49.160;8.580;2024-03-22T05:51:20;9.20;99.90
46490;DHT22;32204;49.160;8.580;2024-03-22T05:53:45;9.30;18.10
46490;DHT22;32204;49.160;8.580;2024-03-22T05:56:11;9.30;1.00
46490;DHT22;32204;49.160;8.580;2024-03-22T05:58:37;9.50;1.00
46490;DHT22;32204;49.160;8.580;2024-03-22T06:01:03;9.60;1.00
46490;DHT22;32204;49.160;8.580;2024-03-22T06:03:29;9.60;99.90
46490;DHT22;32204;49.160;8.580;2024-03-22T06:05:55;9.80;99.90
46490;DHT22;32204;49.160;8.580;2024-03-22T06:08:24;9.90;1.00
46490;DHT22;32204;49.160;8.580;2024-03-22T06:10:52;10.10;99.90
46490;DHT22;32204;49.160;8.580;2024-03-22T06:13:17;10.20;99.90
46490;DHT22;32204;49.160;8.580;2024-03-22T06:15:43;10.20;99.90
46490;DHT22;32204;49.160;8.580;2024-03-22T06:18:12;10.20;99.90
46490;DHT22;32204;49.160;8.580;2024-03-22T06:20:37;10.30;1.00
46490;DHT22;32204;49.160;8.580;2024-03-22T06:23:03;10.30;99.90
46490;DHT22;32204;49.160;8.580;2024-03-22T06:25:29;10.40;99.90
46490;DHT22;32204;49.160;8.580;2024-03-22T06:27:55;10.40;99.90
46490;DHT22;32204;49.160;8.580;2024-03-22T06:30:20;10.50;99.90
46490;DHT22;32204;49.160;8.580;2024-03-22T06:32:46;10.70;99.90
46490;DHT22;32204;49.160;8.580;2024-03-22T06:35:12;10.90;37.20
46490;DHT22;32204;49.160;8.580;2024-03-22T06:37:39;11.40;1.00
46490;DHT22;32204;49.160;8.580;2024-03-22T06:40:06;12.00;99.90
46490;DHT22;32204;49.160;8.580;2024-03-22T06:42:32;13.20;36.50
46490;DHT22;32204;49.160;8.580;2024-03-22T06:44:58;14.60;1.00
46490;DHT22;32204;49.160;8.580;2024-03-22T06:47:23;14.40;1.00
46490;DHT22;32204;49.160;8.580;2024-03-22T06:49:49;13.70;1.00
46490;DHT22;32204;49.160;8.580;2024-03-22T06:52:15;12.80;19.50
46490;DHT22;32204;49.160;8.580;2024-03-22T06:54:41;12.10;99.90
46490;DHT22;32204;49.160;8.580;2024-03-22T06:57:06;11.70;50.50
46490;DHT22;32204;49.160;8.580;2024-03-22T06:59:32;11.40;1.00
46490;DHT22;32204;49.160;8.580;2024-03-22T07:01:57;11.20;35.80
46490;DHT22;32204;49.160;8.580;2024-03-22T07:04:23;11.10;99.90
46490;DHT22;32204;49.160;8.580;2024-03-22T07:06:49;11.10;1.00
46490;DHT22;32204;49.160;8.580;2024-03-22T07:09:14;11.40;99.90
46490;DHT22;32204;49.160;8.580;2024-03-22T07:11:41;11.50;99.90
46490;DHT22;32204;49.160;8.580;2024-03-22T07:14:06;11.60;26.00
46490;DHT22;32204;49.160;8.580;2024-03-22T07:16:32;11.60;1.00
46490;DHT22;32204;49.160;8.580;2024-03-22T07:18:58;11.70;99.90
46490;DHT22;32204;49.160;8.580;2024-03-22T07:21:24;11.70;1.00
46490;DHT22;32204;49.160;8.580;2024-03-22T07:23:50;11.80;99.90
46490;DHT22;32204;49.160;8.580;2024-03-22T07:26:16;11.90;99.90
46490;DHT22;32204;49.160;8.580;2024-03-22T07:28:41;12.00;99.90
46490;DHT22;32204;49.160;8.580;2024-03-22T07:31:07;12.10;99.90
46490;DHT22;32204;49.160;8.580;2024-03-22T07:33:33;12.20;93.80
46490;DHT22;32204;49.160;8.580;2024-03-22T07:36:06;12.30;99.90
46490;DHT22;32204;49.160;8.580;2024-03-22T07:38:32;12.40;52.40
46490;DHT22;32204;49.160;8.580;2024-03-22T07:40:58;12.50;1.00
46490;DHT22;32204;49.160;8.580;2024-03-22T07:43:23;12.60;1.00
46490;DHT22;32204;49.160;8.580;2024-03-22T07:45:49;12.70;1.00
46490;DHT22;32204;49.160;8.580;2024-03-22T07:48:15;12.70;1.00
46490;DHT22;32204;49.160;8.580;2024-03-22T07:50:41;12.80;1.00
46490;DHT22;32204;49.160;8.580;2024-03-22T07:53:06;12.90;1.00
46490;DHT22;32204;49.160;8.580;2024-03-22T07:55:32;13.10;1.00
46490;DHT22;32204;49.160;8.580;2024-03-22T07:57:58;13.10;99.90
46490;DHT22;32204;49.160;8.580;2024-03-22T08:00:24;13.30;99.90
46490;DHT22;32204;49.160;8.580;2024-03-22T08:02:53;13.30;99.90
46490;DHT22;32204;49.160;8.580;2024-03-22T08:05:18;13.40;99.90
46490;DHT22;32204;49.160;8.580;2024-03-22T08:07:45;13.60;99.90
46490;DHT22;32204;49.160;8.580;2024-03-22T08:10:10;13.80;87.50
46490;DHT22;32204;49.160;8.580;2024-03-22T08:12:36;13.90;1.00
46490;DHT22;32204;49.160;8.580;2024-03-22T08:15:01;14.00;1.00
46490;DHT22;32204;49.160;8.580;2024-03-22T08:17:28;14.20;1.00
46490;DHT22;32204;49.160;8.580;2024-03-22T08:19:54;14.40;99.90
46490;DHT22;32204;49.160;8.580;2024-03-22T08:22:19;14.50;99.90
46490;DHT22;32204;49.160;8.580;2024-03-22T08:24:45;14.70;99.90
46490;DHT22;32204;49.160;8.580;2024-03-22T08:27:10;14.90;99.90
46490;DHT22;32204;49.160;8.580;2024-03-22T08:29:37;15.10;99.90
46490;DHT22;32204;49.160;8.580;2024-03-22T08:32:04;15.20;75.60
46490;DHT22;32204;49.160;8.580;2024-03-22T08:34:30;15.30;8.70
46490;DHT22;32204;49.160;8.580;2024-03-22T08:36:58;15.30;1.00
46490;DHT22;32204;49.160;8.580;2024-03-22T08:39:23;15.20;1.00
46490;DHT22;32204;49.160;8.580;2024-03-22T08:41:50;15.30;1.00
46490;DHT22;32204;49.160;8.580;2024-03-22T08:44:16;15.40;1.00
46490;DHT22;32204;49.160;8.580;2024-03-22T08:46:42;15.50;1.00
46490;DHT22;32204;49.160;8.580;2024-03-22T08:49:08;15.80;1.00
46490;DHT22;32204;49.160;8.580;2024-03-22T08:51:33;16.00;1.00
46490;DHT22;32204;49.160;8.580;2024-03-22T08:53:59;16.00;1.00
46490;DHT22;32204;49.160;8.580;2024-03-22T08:56:26;16.10;1.00
46490;DHT22;32204;49.160;8.580;2024-03-22T08:58:51;16.20;1.00
46490;DHT22;32204;49.160;8.580;2024-03-22T09:01:17;16.40;1.00
46490;DHT22;32204;49.160;8.580;2024-03-22T09:03:43;16.40;1.00
46490;DHT22;32204;49.160;8.580;2024-03-22T09:06:12;16.50;99.90
46490;DHT22;32204;49.160;8.580;2024-03-22T09:08:37;16.60;99.90
46490;DHT22;32204;49.160;8.580;2024-03-22T09:11:03;16.70;99.90
46490;DHT22;32204;49.160;8.580;2024-03-22T09:13:29;16.70;99.90
46490;DHT22;32204;49.160;8.580;2024-03-22T09:16:01;16.70;99.90
46490;DHT22;32204;49.160;8.580;2024-03-22T09:18:27;16.60;99.90
46490;DHT22;32204;49.160;8.580;2024-03-22T09:20:53;16.60;99.90
46490;DHT22;32204;49.160;8.580;2024-03-22T09:23:19;16.60;99.90
46490;DHT22;32204;49.160;8.580;2024-03-22T09:25:46;16.60;99.90
46490;DHT22;32204;49.160;8.580;2024-03-22T09:28:12;16.60;99.90
46490;DHT22;32204;49.160;8.580;2024-03-22T09:30:39;16.60;99.90
46490;DHT22;32204;49.160;8.580;2024-03-22T09:33:05;16.70;99.90
46490;DHT22;32204;49.160;8.580;2024-03-22T09:35:33;16.60;99.90
46490;DHT22;32204;49.160;8.580;2024-03-22T09:37:59;16.70;99.90
46490;DHT22;32204;49.160;8.580;2024-03-22T09:40:25;16.70;99.90
46490;DHT22;32204;49.160;8.580;2024-03-22T09:42:53;16.70;99.90
46490;DHT22;32204;49.160;8.580;2024-03-22T09:45:19;16.70;99.90
46490;DHT22;32204;49.160;8.580;2024-03-22T09:47:46;16.60;99.90
46490;DHT22;32204;49.160;8.580;2024-03-22T09:50:13;16.60;99.90
46490;DHT22;32204;49.160;8.580;2024-03-22T09:52:41;16.60;99.90
46490;DHT22;32204;49.160;8.580;2024-03-22T09:55:08;16.60;99.90
46490;DHT22;32204;49.160;8.580;2024-03-22T09:57:40;16.70;99.90
46490;DHT22;32204;49.160;8.580;2024-03-22T10:00:08;16.80;99.90
46490;DHT22;32204;49.160;8.580;2024-03-22T10:02:35;16.80;99.90
46490;DHT22;32204;49.160;8.580;2024-03-22T10:05:01;16.90;99.90
46490;DHT22;32204;49.160;8.580;2024-03-22T10:07:29;17.10;99.90
46490;DHT22;32204;49.160;8.580;2024-03-22T10:09:58;17.10;99.90
46490;DHT22;32204;49.160;8.580;2024-03-22T10:12:24;17.20;99.90
46490;DHT22;32204;49.160;8.580;2024-03-22T10:14:53;17.20;99.90
46490;DHT22;32204;49.160;8.580;2024-03-22T10:17:19;17.30;99.90
46490;DHT22;32204;49.160;8.580;2024-03-22T10:19:45;17.30;99.90
46490;DHT22;32204;49.160;8.580;2024-03-22T10:22:11;17.30;99.90
46490;DHT22;32204;49.160;8.580;2024-03-22T10:24:37;17.50;99.90
46490;DHT22;32204;49.160;8.580;2024-03-22T10:27:02;17.50;99.90
46490;DHT22;32204;49.160;8.580;2024-03-22T10:29:28;17.60;99.90
46490;DHT22;32204;49.160;8.580;2024-03-22T10:31:55;17.60;99.90
46490;DHT22;32204;49.160;8.580;2024-03-22T10:34:21;17.50;99.90
46490;DHT22;32204;49.160;8.580;2024-03-22T10:36:47;17.50;99.90
46490;DHT22;32204;49.160;8.580;2024-03-22T10:39:16;17.50;99.90
46490;DHT22;32204;49.160;8.580;2024-03-22T10:41:44;17.50;99.90
46490;DHT22;32204;49.160;8.580;2024-03-22T10:44:10;17.50;99.90
46490;DHT22;32204;49.160;8.580;2024-03-22T10:46:36;17.40;99.90
46490;DHT22;32204;49.160;8.580;2024-03-22T10:49:03;17.40;99.90
46490;DHT22;32204;49.160;8.580;2024-03-22T10:51:34;17.50;99.90
46490;DHT22;32204;49.160;8.580;2024-03-22T10:54:02;17.60;99.90
46490;DHT22;32204;49.160;8.580;2024-03-22T10:56:29;17.60;99.90
46490;DHT22;32204;49.160;8.580;2024-03-22T10:58:55;17.70;99.90
46490;DHT22;32204;49.160;8.580;2024-03-22T11:01:23;17.70;99.90
46490;DHT22;32204;49.160;8.580;2024-03-22T11:03:49;17.70;99.90
46490;DHT22;32204;49.160;8.580;2024-03-22T11:06:18;17.80;99.90
46490;DHT22;32204;49.160;8.580;2024-03-22T11:08:50;17.70;99.90
46490;DHT22;32204;49.160;8.580;2024-03-22T11:11:18;17.70;99.90
46490;DHT22;32204;49.160;8.580;2024-03-22T11:13:46;17.80;99.90
46490;DHT22;32204;49.160;8.580;2024-03-22T11:16:12;17.80;99.90
46490;DHT22;32204;49.160;8.580;2024-03-22T11:18:39;17.70;99.90
46490;DHT22;32204;49.160;8.580;2024-03-22T11:21:04;17.70;99.90
46490;DHT22;32204;49.160;8.580;2024-03-22T11:23:32;17.70;99.90
46490;DHT22;32204;49.160;8.580;2024-03-22T11:25:59;17.70;99.90
46490;DHT22;32204;49.160;8.580;2024-03-22T11:28:24;17.80;99.90
46490;DHT22;32204;49.160;8.580;2024-03-22T11:30:50;17.80;99.90
46490;DHT22;32204;49.160;8.580;2024-03-22T11:33:15;17.80;99.90
46490;DHT22;32204;49.160;8.580;2024-03-22T11:35:41;18.00;99.90
46490;DHT22;32204;49.160;8.580;2024-03-22T11:38:08;18.00;99.90
46490;DHT22;32204;49.160;8.580;2024-03-22T11:40:34;18.00;99.90
46490;DHT22;32204;49.160;8.580;2024-03-22T11:43:00;18.00;99.90
46490;DHT22;32204;49.160;8.580;2024-03-22T11:45:26;18.00;99.90
46490;DHT22;32204;49.160;8.580;2024-03-22T11:47:52;18.10;99.90
46490;DHT22;32204;49.160;8.580;2024-03-22T11:50:18;17.90;99.90
46490;DHT22;32204;49.160;8.580;2024-03-22T11:52:45;17.90;99.90
46490;DHT22;32204;49.160;8.580;2024-03-22T11:55:14;17.90;99.90
46490;DHT22;32204;49.160;8.580;2024-03-22T11:57:40;17.90;99.90
46490;DHT22;32204;49.160;8.580;2024-03-22T12:00:06;18.00;99.90
46490;DHT22;32204;49.160;8.580;2024-03-22T12:02:37;18.00;99.90
46490;DHT22;32204;49.160;8.580;2024-03-22T12:05:03;18.00;99.90
46490;DHT22;32204;49.160;8.580;2024-03-22T12:07:29;18.00;99.90
46490;DHT22;32204;49.160;8.580;2024-03-22T12:09:55;18.00;99.90
46490;DHT22;32204;49.160;8.580;2024-03-22T12:12:22;18.20;99.90
46490;DHT22;32204;49.160;8.580;2024-03-22T12:14:48;18.10;99.90
46490;DHT22;32204;49.160;8.580;2024-03-22T12:17:15;18.30;99.90
46490;DHT22;32204;49.160;8.580;2024-03-22T12:19:41;18.40;99.90
46490;DHT22;32204;49.160;8.580;2024-03-22T12:22:07;18.60;99.90
46490;DHT22;32204;49.160;8.580;2024-03-22T12:24:32;18.80;99.90
46490;DHT22;32204;49.160;8.580;2024-03-22T12:26:58;18.90;99.90
46490;DHT22;32204;49.160;8.580;2024-03-22T12:29:24;18.80;99.90
46490;DHT22;32204;49.160;8.580;2024-03-22T12:31:50;18.90;99.90
46490;DHT22;32204;49.160;8.580;2024-03-22T12:34:16;18.90;99.90
46490;DHT22;32204;49.160;8.580;2024-03-22T12:36:42;18.90;99.90
46490;DHT22;32204;49.160;8.580;2024-03-22T12:39:07;19.00;99.90
46490;DHT22;32204;49.160;8.580;2024-03-22T12:41:33;19.10;99.90
46490;DHT22;32204;49.160;8.580;2024-03-22T12:44:00;19.00;99.90
46490;DHT22;32204;49.160;8.580;2024-03-22T12:46:26;19.00;99.90
46490;DHT22;32204;49.160;8.580;2024-03-22T12:48:52;19.00;99.90
46490;DHT22;32204;49.160;8.580;2024-03-22T12:51:18;19.10;99.90
46490;DHT22;32204;49.160;8.580;2024-03-22T12:53:44;19.20;99.90
46490;DHT22;32204;49.160;8.580;2024-03-22T12:56:10;19.10;99.90
46490;DHT22;32204;49.160;8.580;2024-03-22T12:58:36;19.00;99.90
46490;DHT22;32204;49.160;8.580;2024-03-22T13:01:02;19.10;99.90
46490;DHT22;32204;49.160;8.580;2024-03-22T13:03:29;19.00;99.90
46490;DHT22;32204;49.160;8.580;2024-03-22T13:05:55;19.10;99.90
46490;DHT22;32204;49.160;8.580;2024-03-22T13:08:21;19.20;99.90
46490;DHT22;32204;49.160;8.580;2024-03-22T13:10:46;19.20;99.90
46490;DHT22;32204;49.160;8.580;2024-03-22T13:13:13;19.10;99.90
46490;DHT22;32204;49.160;8.580;2024-03-22T13:15:42;19.10;99.90
46490;DHT22;32204;49.160;8.580;2024-03-22T13:18:08;19.10;99.90
46490;DHT22;32204;49.160;8.580;2024-03-22T13:20:35;19.10;99.90
46490;DHT22;32204;49.160;8.580;2024-03-22T13:23:00;19.10;99.90
46490;DHT22;32204;49.160;8.580;2024-03-22T13:25:27;19.00;99.90
46490;DHT22;32204;49.160;8.580;2024-03-22T13:27:52;18.80;99.90
46490;DHT22;32204;49.160;8.580;2024-03-22T13:30:18;18.80;99.90
46490;DHT22;32204;49.160;8.580;2024-03-22T13:32:44;18.70;99.90
46490;DHT22;32204;49.160;8.580;2024-03-22T13:35:10;18.70;99.90
46490;DHT22;32204;49.160;8.580;2024-03-22T13:37:36;18.70;99.90
46490;DHT22;32204;49.160;8.580;2024-03-22T13:40:02;18.50;99.90
46490;DHT22;32204;49.160;8.580;2024-03-22T13:42:28;18.40;99.90
46490;DHT22;32204;49.160;8.580;2024-03-22T13:44:53;18.30;99.90
46490;DHT22;32204;49.160;8.580;2024-03-22T13:47:19;18.30;99.90
46490;DHT22;32204;49.160;8.580;2024-03-22T13:49:45;18.40;99.90
46490;DHT22;32204;49.160;8.580;2024-03-22T13:52:11;18.40;99.90
46490;DHT22;32204;49.160;8.580;2024-03-22T13:54:36;18.40;99.90
46490;DHT22;32204;49.160;8.580;2024-03-22T13:57:02;18.40;99.90
46490;DHT22;32204;49.160;8.580;2024-03-22T13:59:29;18.40;99.90
46490;DHT22;32204;49.160;8.580;2024-03-22T14:01:55;18.40;99.90
46490;DHT22;32204;49.160;8.580;2024-03-22T14:04:25;18.40;99.90
46490;DHT22;32204;49.160;8.580;2024-03-22T14:06:52;18.50;99.90
46490;DHT22;32204;49.160;8.580;2024-03-22T14:09:18;18.50;99.90
46490;DHT22;32204;49.160;8.580;2024-03-22T14:11:43;18.50;99.90
46490;DHT22;32204;49.160;8.580;2024-03-22T14:14:10;18.50;99.90
46490;DHT22;32204;49.160;8.580;2024-03-22T14:16:39;18.70;99.90
46490;DHT22;32204;49.160;8.580;2024-03-22T14:19:05;18.80;99.90
46490;DHT22;32204;49.160;8.580;2024-03-22T14:21:30;18.90;99.90
46490;DHT22;32204;49.160;8.580;2024-03-22T14:23:56;18.90;99.90
46490;DHT22;32204;49.160;8.580;2024-03-22T14:26:21;18.90;99.90
46490;DHT22;32204;49.160;8.580;2024-03-22T14:28:49;18.90;99.90
46490;DHT22;32204;49.160;8.580;2024-03-22T14:31:15;18.90;99.90
46490;DHT22;32204;49.160;8.580;2024-03-22T14:33:41;19.00;99.90
46490;DHT22;32204;49.160;8.580;2024-03-22T14:36:08;19.00;99.90
46490;DHT22;32204;49.160;8.580;2024-03-22T14:38:35;19.00;99.90
46490;DHT22;32204;49.160;8.580;2024-03-22T14:41:01;19.10;99.90
46490;DHT22;32204;49.160;8.580;2024-03-22T14:43:27;19.20;99.90
46490;DHT22;32204;49.160;8.580;2024-03-22T14:45:53;19.30;99.90
46490;DHT22;32204;49.160;8.580;2024-03-22T14:48:23;19.30;99.90
46490;DHT22;32204;49.160;8.580;2024-03-22T14:50:49;19.20;99.90
46490;DHT22;32204;49.160;8.580;2024-03-22T14:53:16;19.30;99.90
46490;DHT22;32204;49.160;8.580;2024-03-22T14:55:55;19.30;99.90
46490;DHT22;32204;49.160;8.580;2024-03-22T14:58:24;19.40;99.90
46490;DHT22;32204;49.160;8.580;2024-03-22T15:01:06;19.40;99.90
46490;DHT22;32204;49.160;8.580;2024-03-22T15:03:32;19.40;99.90
46490;DHT22;32204;49.160;8.580;2024-03-22T15:05:58;19.10;99.90
46490;DHT22;32204;49.160;8.580;2024-03-22T15:08:27;19.00;99.90
46490;DHT22;32204;49.160;8.580;2024-03-22T15:10:54;18.90;99.90
46490;DHT22;32204;49.160;8.580;2024-03-22T15:13:19;18.90;99.90
46490;DHT22;32204;49.160;8.580;2024-03-22T15:15:53;18.80;99.90
46490;DHT22;32204;49.160;8.580;2024-03-22T15:18:19;18.70;99.90
46490;DHT22;32204;49.160;8.580;2024-03-22T15:20:46;18.70;99.90
46490;DHT22;32204;49.160;8.580;2024-03-22T15:23:11;18.70;99.90
46490;DHT22;32204;49.160;8.580;2024-03-22T15:25:37;18.80;99.90
46490;DHT22;32204;49.160;8.580;2024-03-22T15:28:03;18.80;99.90
46490;DHT22;32204;49.160;8.580;2024-03-22T15:30:28;18.80;99.90
46490;DHT22;32204;49.160;8.580;2024-03-22T15:32:54;18.80;99.90